PWSweather.com
Personal Weather Stations
Station Observations
DEEPSOUTH
Waverley, InvercargillNZ 9810

WaverleyInvercargillNZ 9810

Lat: -46.3926834, Lon: 168.381112

Elevation: 72

Station Type: Davis VP2

http://www.deepsouthweather.co.nz/

Latest ConditionsUpdated 9:20:03 AM GMT+11:11 Tuesday, Nov 25, 2014
Currently Today's Max Today's Min Today's Average
Temperature 62.8°F17.1°C 62.8°F17.1°C 52.3°F11.3°C 55.4°F13.0°C
Dew Point 55.8°F13.2°C 56.3°F13.5°C 50.7°F10.4°C 52.5°F11.4°C
Winds 8.0 mph NE12.9 kmh NE 8.0 mph NE12.9 kmh NE - 2.2 mph 3.5 kmh
Wind Gusts 14.0 mph22.5 kmh 16.0 mph25.7 kmh - -
Humidity 78% 95% 78% 90%
Pressure 29.67 in1004.7 mb 29.92 in1013.2 mb 29.67 in1004.7 mb -
Hour Temp Dew Point Humidity Winds Wind Gusts Pressure Precip Precip Rate Daily Precip Total
09:20 AM 62.8°F17.1°C 55.8°F13.2°C 78% 8.0 mph NE12.9 kmh NE 14.0 mph22.5 kmh 29.67 in1004.7 mb 0.00 in0.0 mm 0.00 in/hr0.0 mm/hr 0.00 in0.0 mm
09:10 AM 62.2°F16.8°C 56.3°F13.5°C 81% 6.0 mph NE9.7 kmh NE 13.0 mph20.9 kmh 29.68 in1005.1 mb 0.00 in0.0 mm 0.00 in/hr0.0 mm/hr 0.00 in0.0 mm
09:00 AM 61.0°F16.1°C 55.1°F12.8°C 81% 7.0 mph NE11.3 kmh NE 16.0 mph25.7 kmh 29.68 in1005.1 mb 0.00 in0.0 mm 0.00 in/hr0.0 mm/hr 0.00 in0.0 mm
08:50 AM 60.6°F15.9°C 55.4°F13.0°C 83% 5.0 mph NE8.0 kmh NE 11.0 mph17.7 kmh 29.69 in1005.4 mb 0.00 in0.0 mm 0.00 in/hr0.0 mm/hr 0.00 in0.0 mm
08:40 AM 60.6°F15.9°C 55.1°F12.8°C 82% 5.0 mph NE8.0 kmh NE 10.0 mph16.1 kmh 29.71 in1006.1 mb 0.00 in0.0 mm 0.00 in/hr0.0 mm/hr 0.00 in0.0 mm
08:30 AM 60.4°F15.8°C 54.9°F12.7°C 82% 6.0 mph NE9.7 kmh NE 13.0 mph20.9 kmh 29.71 in1006.1 mb 0.00 in0.0 mm 0.00 in/hr0.0 mm/hr 0.00 in0.0 mm
08:20 AM 60.4°F15.8°C 54.9°F12.7°C 82% 6.0 mph NE9.7 kmh NE 12.0 mph19.3 kmh 29.72 in1006.4 mb 0.00 in0.0 mm 0.00 in/hr0.0 mm/hr 0.00 in0.0 mm
08:10 AM 61.0°F16.1°C 55.4°F13.0°C 82% 5.0 mph NE8.0 kmh NE 11.0 mph17.7 kmh 29.73 in1006.8 mb 0.00 in0.0 mm 0.00 in/hr0.0 mm/hr 0.00 in0.0 mm
08:00 AM 60.8°F16.0°C 55.6°F13.1°C 83% 5.0 mph NE8.0 kmh NE 11.0 mph17.7 kmh 29.74 in1007.1 mb 0.00 in0.0 mm 0.00 in/hr0.0 mm/hr 0.00 in0.0 mm
07:50 AM 59.9°F15.5°C 55.1°F12.8°C 84% 5.0 mph NE8.0 kmh NE 11.0 mph17.7 kmh 29.75 in1007.5 mb 0.00 in0.0 mm 0.00 in/hr0.0 mm/hr 0.00 in0.0 mm
07:40 AM 59.7°F15.4°C 54.9°F12.7°C 84% 5.0 mph NE8.0 kmh NE 11.0 mph17.7 kmh 29.75 in1007.5 mb 0.00 in0.0 mm 0.00 in/hr0.0 mm/hr 0.00 in0.0 mm
07:30 AM 59.2°F15.1°C 54.3°F12.4°C 84% 6.0 mph NE9.7 kmh NE 12.0 mph19.3 kmh 29.76 in1007.8 mb 0.00 in0.0 mm 0.00 in/hr0.0 mm/hr 0.00 in0.0 mm
07:20 AM 58.8°F14.9°C 54.3°F12.4°C 85% 5.0 mph NE8.0 kmh NE 10.0 mph16.1 kmh 29.76 in1007.8 mb 0.00 in0.0 mm 0.00 in/hr0.0 mm/hr 0.00 in0.0 mm
07:10 AM 58.8°F14.9°C 54.3°F12.4°C 85% 5.0 mph NE8.0 kmh NE 10.0 mph16.1 kmh 29.76 in1007.8 mb 0.00 in0.0 mm 0.00 in/hr0.0 mm/hr 0.00 in0.0 mm
07:00 AM 57.7°F14.3°C 53.6°F12.0°C 86% 5.0 mph NE8.0 kmh NE 10.0 mph16.1 kmh 29.77 in1008.1 mb 0.00 in0.0 mm 0.00 in/hr0.0 mm/hr 0.00 in0.0 mm
06:50 AM 57.4°F14.1°C 53.5°F11.9°C 87% 5.0 mph NE8.0 kmh NE 10.0 mph16.1 kmh 29.78 in1008.5 mb 0.00 in0.0 mm 0.00 in/hr0.0 mm/hr 0.00 in0.0 mm
06:40 AM 56.7°F13.7°C 53.1°F11.7°C 88% 5.0 mph NNE8.0 kmh NNE 10.0 mph16.1 kmh 29.79 in1008.8 mb 0.00 in0.0 mm 0.00 in/hr0.0 mm/hr 0.00 in0.0 mm
06:30 AM 56.1°F13.4°C 53.2°F11.8°C 90% 4.0 mph NE6.4 kmh NE 10.0 mph16.1 kmh 29.79 in1008.8 mb 0.00 in0.0 mm 0.00 in/hr0.0 mm/hr 0.00 in0.0 mm
06:20 AM 55.4°F13.0°C 52.5°F11.4°C 90% 4.0 mph NE6.4 kmh NE 8.0 mph12.9 kmh 29.78 in1008.5 mb 0.00 in0.0 mm 0.00 in/hr0.0 mm/hr 0.00 in0.0 mm
06:10 AM 55.0°F12.8°C 52.5°F11.4°C 91% 4.0 mph NE6.4 kmh NE 9.0 mph14.5 kmh 29.79 in1008.8 mb 0.00 in0.0 mm 0.00 in/hr0.0 mm/hr 0.00 in0.0 mm
06:00 AM 54.5°F12.5°C 52.5°F11.4°C 93% 5.0 mph NE8.0 kmh NE 9.0 mph14.5 kmh 29.79 in1008.8 mb 0.00 in0.0 mm 0.00 in/hr0.0 mm/hr 0.00 in0.0 mm
05:50 AM 54.1°F12.3°C 52.5°F11.4°C 94% 3.0 mph NE4.8 kmh NE 7.0 mph11.3 kmh 29.80 in1009.1 mb 0.00 in0.0 mm 0.00 in/hr0.0 mm/hr 0.00 in0.0 mm
05:40 AM 54.0°F12.2°C 52.6°F11.4°C 95% 2.0 mph NE3.2 kmh NE 5.0 mph8.0 kmh 29.80 in1009.1 mb 0.00 in0.0 mm 0.00 in/hr0.0 mm/hr 0.00 in0.0 mm
05:30 AM 53.6°F12.0°C 52.2°F11.2°C 95% 1.0 mph NE1.6 kmh NE 6.0 mph9.7 kmh 29.80 in1009.1 mb 0.00 in0.0 mm 0.00 in/hr0.0 mm/hr 0.00 in0.0 mm
05:20 AM 53.1°F11.7°C 51.7°F10.9°C 95% Calm Calm 2.0 mph3.2 kmh 29.81 in1009.5 mb 0.00 in0.0 mm 0.00 in/hr0.0 mm/hr 0.00 in0.0 mm
05:10 AM 52.7°F11.5°C 51.3°F10.7°C 95% Calm Calm -- 29.81 in1009.5 mb 0.00 in0.0 mm 0.00 in/hr0.0 mm/hr 0.00 in0.0 mm
05:00 AM 52.5°F11.4°C 51.1°F10.6°C 95% Calm Calm -- 29.82 in1009.8 mb 0.00 in0.0 mm 0.00 in/hr0.0 mm/hr 0.00 in0.0 mm
04:50 AM 52.3°F11.3°C 50.7°F10.4°C 94% Calm Calm -- 29.82 in1009.8 mb 0.00 in0.0 mm 0.00 in/hr0.0 mm/hr 0.00 in0.0 mm
04:40 AM 52.3°F11.3°C 50.7°F10.4°C 94% Calm Calm -- 29.82 in1009.8 mb 0.00 in0.0 mm 0.00 in/hr0.0 mm/hr 0.00 in0.0 mm
04:30 AM 52.3°F11.3°C 50.7°F10.4°C 94% Calm Calm 2.0 mph3.2 kmh 29.82 in1009.8 mb 0.00 in0.0 mm 0.00 in/hr0.0 mm/hr 0.00 in0.0 mm
04:20 AM 52.3°F11.3°C 50.7°F10.4°C 94% Calm Calm 1.0 mph1.6 kmh 29.83 in1010.2 mb 0.00 in0.0 mm 0.00 in/hr0.0 mm/hr 0.00 in0.0 mm
04:10 AM 52.3°F11.3°C 50.7°F10.4°C 94% Calm Calm 2.0 mph3.2 kmh 29.84 in1010.5 mb 0.00 in0.0 mm 0.00 in/hr0.0 mm/hr 0.00 in0.0 mm
04:00 AM 52.3°F11.3°C 50.7°F10.4°C 94% Calm Calm 3.0 mph4.8 kmh 29.84 in1010.5 mb 0.00 in0.0 mm 0.00 in/hr0.0 mm/hr 0.00 in0.0 mm
03:50 AM 52.5°F11.4°C 50.8°F10.4°C 94% Calm Calm 1.0 mph1.6 kmh 29.84 in1010.5 mb 0.00 in0.0 mm 0.00 in/hr0.0 mm/hr 0.00 in0.0 mm
03:40 AM 52.7°F11.5°C 51.0°F10.6°C 94% Calm Calm 1.0 mph1.6 kmh 29.85 in1010.8 mb 0.00 in0.0 mm 0.00 in/hr0.0 mm/hr 0.00 in0.0 mm
03:30 AM 52.9°F11.6°C 51.2°F10.7°C 94% 1.0 mph ESE1.6 kmh ESE 4.0 mph6.4 kmh 29.85 in1010.8 mb 0.00 in0.0 mm 0.00 in/hr0.0 mm/hr 0.00 in0.0 mm
03:20 AM 53.1°F11.7°C 51.1°F10.6°C 93% 1.0 mph ESE1.6 kmh ESE 4.0 mph6.4 kmh 29.85 in1010.8 mb 0.00 in0.0 mm 0.00 in/hr0.0 mm/hr 0.00 in0.0 mm
03:10 AM 53.2°F11.8°C 51.3°F10.7°C 93% 1.0 mph ESE1.6 kmh ESE 4.0 mph6.4 kmh 29.86 in1011.2 mb 0.00 in0.0 mm 0.00 in/hr0.0 mm/hr 0.00 in0.0 mm
03:00 AM 53.2°F11.8°C 51.3°F10.7°C 93% 1.0 mph ESE1.6 kmh ESE 4.0 mph6.4 kmh 29.86 in1011.2 mb 0.00 in0.0 mm 0.00 in/hr0.0 mm/hr 0.00 in0.0 mm
02:50 AM 53.4°F11.9°C 51.4°F10.8°C 93% Calm Calm 4.0 mph6.4 kmh 29.86 in1011.2 mb 0.00 in0.0 mm 0.00 in/hr0.0 mm/hr 0.00 in0.0 mm
02:40 AM 53.4°F11.9°C 51.4°F10.8°C 93% Calm Calm 4.0 mph6.4 kmh 29.88 in1011.9 mb 0.00 in0.0 mm 0.00 in/hr0.0 mm/hr 0.00 in0.0 mm
02:30 AM 53.4°F11.9°C 51.4°F10.8°C 93% 1.0 mph SE1.6 kmh SE 4.0 mph6.4 kmh 29.88 in1011.9 mb 0.00 in0.0 mm 0.00 in/hr0.0 mm/hr 0.00 in0.0 mm
02:20 AM 53.6°F12.0°C 51.3°F10.7°C 92% 1.0 mph ESE1.6 kmh ESE 5.0 mph8.0 kmh 29.88 in1011.9 mb 0.00 in0.0 mm 0.00 in/hr0.0 mm/hr 0.00 in0.0 mm
02:10 AM 53.6°F12.0°C 51.3°F10.7°C 92% Calm Calm -- 29.89 in1012.2 mb 0.00 in0.0 mm 0.00 in/hr0.0 mm/hr 0.00 in0.0 mm
02:00 AM 53.6°F12.0°C 51.3°F10.7°C 92% Calm Calm -- 29.88 in1011.9 mb 0.00 in0.0 mm 0.00 in/hr0.0 mm/hr 0.00 in0.0 mm
01:50 AM 53.6°F12.0°C 51.3°F10.7°C 92% 1.0 mph E1.6 kmh E 4.0 mph6.4 kmh 29.88 in1011.9 mb 0.00 in0.0 mm 0.00 in/hr0.0 mm/hr 0.00 in0.0 mm
01:40 AM 53.8°F12.1°C 51.5°F10.8°C 92% Calm Calm 5.0 mph8.0 kmh 29.88 in1011.9 mb 0.00 in0.0 mm 0.00 in/hr0.0 mm/hr 0.00 in0.0 mm
01:30 AM 53.8°F12.1°C 51.5°F10.8°C 92% Calm Calm -- 29.89 in1012.2 mb 0.00 in0.0 mm 0.00 in/hr0.0 mm/hr 0.00 in0.0 mm
01:20 AM 53.8°F12.1°C 51.5°F10.8°C 92% Calm Calm -- 29.90 in1012.5 mb 0.00 in0.0 mm 0.00 in/hr0.0 mm/hr 0.00 in0.0 mm
01:10 AM 53.8°F12.1°C 51.5°F10.8°C 92% Calm Calm -- 29.90 in1012.5 mb 0.00 in0.0 mm 0.00 in/hr0.0 mm/hr 0.00 in0.0 mm
01:00 AM 54.0°F12.2°C 51.7°F10.9°C 92% Calm Calm -- 29.89 in1012.2 mb 0.00 in0.0 mm 0.00 in/hr0.0 mm/hr 0.00 in0.0 mm
12:50 AM 54.0°F12.2°C 51.4°F10.8°C 91% Calm Calm -- 29.90 in1012.5 mb 0.00 in0.0 mm 0.00 in/hr0.0 mm/hr 0.00 in0.0 mm
12:40 AM 54.0°F12.2°C 51.4°F10.8°C 91% Calm Calm -- 29.90 in1012.5 mb 0.00 in0.0 mm 0.00 in/hr0.0 mm/hr 0.00 in0.0 mm
12:30 AM 54.1°F12.3°C 51.6°F10.9°C 91% Calm Calm -- 29.91 in1012.9 mb 0.00 in0.0 mm 0.00 in/hr0.0 mm/hr 0.00 in0.0 mm
12:20 AM 54.1°F12.3°C 51.6°F10.9°C 91% Calm Calm -- 29.91 in1012.9 mb 0.00 in0.0 mm 0.00 in/hr0.0 mm/hr 0.00 in0.0 mm
12:10 AM 54.1°F12.3°C 51.6°F10.9°C 91% Calm Calm -- 29.91 in1012.9 mb 0.00 in0.0 mm 0.00 in/hr0.0 mm/hr 0.00 in0.0 mm
12:00 AM 54.1°F12.3°C 51.6°F10.9°C 91% Calm Calm -- 29.92 in1013.2 mb 0.00 in0.0 mm 0.00 in/hr0.0 mm/hr 0.00 in0.0 mm